Time;durP1;ratioP1;P1;durP2;ratioP2;P2;SDS_P1;SDS_P2;PMS_P1;PMS_P2;Temp;Humidity;BMP_temperature;BMP_pressure;BME280_temperature;BME280_humidity;BME280_pressure;Samples;Min_cycle;Max_cycle;Signal;HPM_P1;HPM_P2
2023/12/14 00:00:03;;;;;;;13.40;12.00;;;;;;;9.69;100.00;100750.94;5245021;28;20063;-77
2023/12/14 00:02:35;;;;;;;13.98;12.02;;;;;;;9.69;100.00;100756.19;5239206;28;20033;-77
2023/12/14 00:05:07;;;;;;;13.45;12.05;;;;;;;9.65;100.00;100767.84;5242670;28;20107;-77
2023/12/14 00:07:38;;;;;;;12.88;11.30;;;;;;;9.64;100.00;100763.59;5243566;28;20041;-77
2023/12/14 00:10:12;;;;;;;13.93;10.63;;;;;;;9.61;100.00;100776.91;5243961;28;20053;-77
2023/12/14 00:12:44;;;;;;;;;;;;;;;10.26;100.00;100777.66;5240601;28;20386;-77
2023/12/14 00:15:16;;;;;;;11.05;9.90;;;;;;;9.53;100.00;100783.72;5247661;28;19952;-77
2023/12/14 00:17:47;;;;;;;11.77;10.57;;;;;;;9.47;100.00;100787.66;5242018;28;20111;-77
2023/12/14 00:20:19;;;;;;;12.23;10.98;;;;;;;9.35;100.00;100797.31;5240278;28;20041;-77
2023/12/14 00:22:51;;;;;;;12.63;11.32;;;;;;;9.27;100.00;100797.94;5239865;28;20021;-77
2023/12/14 00:25:23;;;;;;;12.45;10.85;;;;;;;9.27;100.00;100803.16;5239978;28;20123;-77
2023/12/14 00:27:55;;;;;;;12.40;11.20;;;;;;;9.20;100.00;100807.22;5242686;28;20033;-77
2023/12/14 00:30:27;;;;;;;13.07;11.77;;;;;;;9.16;100.00;100812.81;5243425;28;20040;-77
2023/12/14 00:32:59;;;;;;;12.18;10.93;;;;;;;9.10;100.00;100823.78;5246656;28;20064;-77
2023/12/14 00:35:32;;;;;;;;;;;;;;;9.78;100.00;100827.88;5252083;28;20049;-77
2023/12/14 00:38:04;;;;;;;13.80;12.40;;;;;;;9.08;100.00;100841.34;5252603;28;20687;-77
2023/12/14 00:40:36;;;;;;;13.82;12.35;;;;;;;9.00;100.00;100850.63;5254586;28;20036;-77
2023/12/14 00:43:07;;;;;;;14.52;13.02;;;;;;;8.98;100.00;100854.31;5248026;28;20044;-77
2023/12/14 00:45:41;;;;;;;14.50;12.80;;;;;;;8.93;100.00;100862.50;5254236;28;20473;-77
2023/12/14 00:48:13;;;;;;;14.77;13.20;;;;;;;8.87;100.00;100865.59;5250921;28;20045;-77
2023/12/14 00:50:44;;;;;;;17.38;14.52;;;;;;;8.85;100.00;100864.03;5253313;28;20033;-77
2023/12/14 00:53:16;;;;;;;15.65;14.00;;;;;;;8.74;100.00;100881.38;5252363;28;20041;-77
2023/12/14 00:55:48;;;;;;;16.08;13.68;;;;;;;8.73;100.00;100876.28;5252125;28;20031;-77
2023/12/14 00:58:20;;;;;;;15.68;14.02;;;;;;;8.70;100.00;100876.50;5251011;28;20243;-77
2023/12/14 01:00:54;;;;;;;16.42;14.57;;;;;;;8.67;100.00;100877.56;5249100;28;20033;-77
2023/12/14 01:03:26;;;;;;;16.13;13.63;;;;;;;8.65;100.00;100884.69;5252906;28;20036;-77
2023/12/14 01:05:57;;;;;;;15.65;13.90;;;;;;;8.64;100.00;100884.81;5246254;28;20029;-77
2023/12/14 01:08:29;;;;;;;15.75;14.05;;;;;;;8.59;100.00;100892.97;5247815;28;20041;-77
2023/12/14 01:11:01;;;;;;;17.42;14.85;;;;;;;8.60;100.00;100896.41;5249421;28;20507;-77
2023/12/14 01:13:33;;;;;;;16.45;13.85;;;;;;;8.51;100.00;100896.16;5253692;28;20430;-77
2023/12/14 01:16:05;;;;;;;16.35;14.00;;;;;;;8.44;100.00;100913.25;5253064;28;20021;-77
2023/12/14 01:18:37;;;;;;;16.02;13.93;;;;;;;8.36;100.00;100910.34;5252386;28;20044;-77
2023/12/14 01:21:09;;;;;;;14.70;12.80;;;;;;;8.36;100.00;100925.19;5252460;28;20478;-77
2023/12/14 01:23:41;;;;;;;14.48;12.40;;;;;;;8.32;100.00;100935.00;5253276;28;20425;-77
2023/12/14 01:26:13;;;;;;;13.35;11.48;;;;;;;8.31;100.00;100942.97;5253618;28;20029;-77
2023/12/14 01:28:44;;;;;;;12.35;11.05;;;;;;;8.29;100.00;100937.84;5252452;28;20033;-77
2023/12/14 01:31:16;;;;;;;13.13;11.73;;;;;;;8.26;100.00;100951.16;5254195;28;20033;-77
2023/12/14 01:33:49;;;;;;;13.90;11.73;;;;;;;8.20;100.00;100949.78;5252978;28;20403;-77
2023/12/14 01:36:22;;;;;;;13.50;11.50;;;;;;;8.29;100.00;100961.34;5251938;28;20037;-77
2023/12/14 01:38:53;;;;;;;12.50;11.20;;;;;;;8.28;100.00;100962.28;5253774;28;20279;-77
2023/12/14 01:41:25;;;;;;;13.00;11.05;;;;;;;8.27;100.00;100973.69;5251324;28;20489;-77
2023/12/14 01:43:57;;;;;;;12.65;11.35;;;;;;;8.21;100.00;100964.50;5253705;28;20500;-77
2023/12/14 01:46:29;;;;;;;13.52;12.05;;;;;;;8.23;100.00;100977.47;5251471;28;20505;-77
2023/12/14 01:49:01;;;;;;;13.32;11.57;;;;;;;8.20;100.00;100975.91;5250144;28;20037;-77
2023/12/14 01:51:34;;;;;;;12.38;11.10;;;;;;;8.25;100.00;100989.44;5252106;28;20039;-77
2023/12/14 01:54:06;;;;;;;12.23;11.02;;;;;;;8.25;100.00;100983.38;5252064;28;20368;-77
2023/12/14 01:56:38;;;;;;;13.23;10.88;;;;;;;8.25;100.00;100997.25;5253233;28;20051;-77
2023/12/14 01:59:10;;;;;;;12.30;11.00;;;;;;;8.18;100.00;100997.81;5249063;28;20193;-77
2023/12/14 02:01:43;;;;;;;13.40;12.00;;;;;;;8.22;100.00;101009.69;5253052;28;20029;-77
2023/12/14 02:04:15;;;;;;;12.90;11.05;;;;;;;8.26;100.00;101009.41;5252399;28;20044;-77
2023/12/14 02:06:47;;;;;;;12.85;11.43;;;;;;;8.22;100.00;101014.91;5252708;28;20402;-77
2023/12/14 02:09:19;;;;;;;12.95;11.18;;;;;;;8.19;100.00;101018.59;5250734;28;20075;-77
2023/12/14 02:11:51;;;;;;;12.23;10.88;;;;;;;8.13;100.00;101023.44;5252536;28;20025;-77
2023/12/14 02:14:23;;;;;;;12.27;10.98;;;;;;;8.14;100.00;101032.91;5251894;28;20052;-77
2023/12/14 02:16:55;;;;;;;13.65;11.98;;;;;;;8.11;100.00;101028.75;5249869;28;20028;-77
2023/12/14 02:19:27;;;;;;;11.98;10.70;;;;;;;8.12;100.00;101040.03;5253060;28;20483;-77
2023/12/14 02:21:59;;;;;;;13.73;11.15;;;;;;;8.15;100.00;101047.66;5252148;28;20505;-77
2023/12/14 02:24:30;;;;;;;12.02;10.73;;;;;;;8.17;100.00;101043.97;5251112;28;20122;-77
2023/12/14 02:27:03;;;;;;;11.82;10.52;;;;;;;8.11;100.00;101051.44;5252076;28;20047;-77
2023/12/14 02:29:35;;;;;;;13.15;10.13;;;;;;;8.12;100.00;101045.25;5253373;28;20478;-77
2023/12/14 02:32:07;;;;;;;12.02;10.50;;;;;;;8.15;100.00;101050.25;5250324;28;20053;-77
2023/12/14 02:34:38;;;;;;;12.82;11.38;;;;;;;8.03;100.00;101050.19;5251639;28;20040;-77
2023/12/14 02:37:11;;;;;;;13.73;11.90;;;;;;;8.00;100.00;101062.63;5252281;28;20048;-77
2023/12/14 02:39:43;;;;;;;13.00;11.67;;;;;;;8.05;100.00;101063.94;5249731;28;20022;-77
2023/12/14 02:42:15;;;;;;;13.98;11.57;;;;;;;8.00;100.00;101075.66;5250444;28;20044;-77
2023/12/14 02:44:46;;;;;;;13.90;11.60;;;;;;;8.02;100.00;101071.97;5250241;28;20043;-77
2023/12/14 02:47:18;;;;;;;14.30;12.23;;;;;;;7.98;100.00;101088.78;5251150;28;20033;-77
2023/12/14 02:49:50;;;;;;;14.18;11.80;;;;;;;8.00;100.00;101093.94;5249609;28;20038;-77
2023/12/14 02:52:22;;;;;;;13.27;11.70;;;;;;;8.00;100.00;101097.38;5252475;28;20040;-77
2023/12/14 02:54:54;;;;;;;13.57;12.00;;;;;;;8.04;100.00;101101.41;5250590;28;20035;-77
2023/12/14 02:57:26;;;;;;;13.55;11.68;;;;;;;8.00;100.00;101097.38;5253353;28;20051;-77
2023/12/14 02:59:58;;;;;;;12.90;11.00;;;;;;;8.01;100.00;101103.41;5247321;28;20116;-77
2023/12/14 03:02:30;;;;;;;12.60;11.30;;;;;;;7.95;100.00;101109.88;5252401;28;20500;-77
2023/12/14 03:05:02;;;;;;;12.82;11.20;;;;;;;7.87;100.00;101112.19;5251457;28;20037;-77
2023/12/14 03:07:33;;;;;;;13.15;11.40;;;;;;;7.82;100.00;101103.84;5251338;28;20029;-77
2023/12/14 03:10:06;;;;;;;13.15;11.07;;;;;;;7.86;100.00;101120.97;5248439;28;20031;-77
2023/12/14 03:12:38;;;;;;;14.45;11.98;;;;;;;7.87;100.00;101122.63;5252360;28;20053;-77
2023/12/14 03:15:10;;;;;;;12.32;11.05;;;;;;;7.86;100.00;101130.56;5250485;28;20040;-77
2023/12/14 03:17:42;;;;;;;12.95;11.55;;;;;;;7.83;100.00;101125.56;5251055;28;20052;-77
2023/12/14 03:20:14;;;;;;;13.32;11.75;;;;;;;7.86;100.00;101130.56;5249004;28;20032;-77
2023/12/14 03:22:46;;;;;;;13.95;11.73;;;;;;;7.86;100.00;101133.16;5249172;28;20486;-77
2023/12/14 03:25:18;;;;;;;13.43;12.02;;;;;;;7.83;100.00;101134.19;5251821;28;20038;-77
2023/12/14 03:27:49;;;;;;;13.50;12.10;;;;;;;7.85;100.00;101126.28;5244584;28;20497;-77
2023/12/14 03:30:21;;;;;;;14.52;12.82;;;;;;;7.82;100.00;101135.16;5243183;28;20406;-77
2023/12/14 03:32:53;;;;;;;14.82;12.90;;;;;;;7.79;100.00;101136.19;5241839;28;20042;-77
2023/12/14 03:35:25;;;;;;;15.50;12.07;;;;;;;7.76;100.00;101130.34;5240671;28;20028;-77
2023/12/14 03:37:57;;;;;;;13.60;12.18;;;;;;;7.78;100.00;101133.69;5244072;28;20031;-77
2023/12/14 03:40:29;;;;;;;14.13;12.68;;;;;;;7.73;100.00;101147.06;5239981;28;20029;-77
2023/12/14 03:43:03;;;;;;;14.50;12.75;;;;;;;7.74;100.00;101140.06;5240712;28;20037;-77
2023/12/14 03:45:34;;;;;;;13.77;12.48;;;;;;;7.75;100.00;101152.16;5236884;28;20033;-77
2023/12/14 03:48:06;;;;;;;13.88;12.48;;;;;;;7.78;100.00;101151.94;5236889;28;20030;-77
2023/12/14 03:50:38;;;;;;;14.25;12.75;;;;;;;7.81;100.00;101159.56;5242765;28;20059;-77
2023/12/14 03:53:10;;;;;;;15.02;13.45;;;;;;;7.74;100.00;101150.50;5242210;28;20042;-77
2023/12/14 03:55:42;;;;;;;15.20;12.15;;;;;;;7.82;100.00;101161.25;5240606;28;20391;-77
2023/12/14 03:58:14;;;;;;;14.07;12.30;;;;;;;7.76;100.00;101164.25;5242907;28;20025;-77
2023/12/14 04:00:46;;;;;;;14.50;12.82;;;;;;;7.76;100.00;101166.84;5234708;28;20034;-77
2023/12/14 04:03:18;;;;;;;13.38;11.98;;;;;;;7.73;100.00;101159.25;5240111;28;20155;-77
2023/12/14 04:05:50;;;;;;;14.20;12.73;;;;;;;7.77;100.00;101169.38;5236884;28;20040;-77
2023/12/14 04:08:22;;;;;;;12.90;11.60;;;;;;;7.77;100.00;101171.16;5243837;28;20041;-77
2023/12/14 04:10:54;;;;;;;14.25;12.77;;;;;;;7.78;100.00;101172.81;5239714;28;20398;-77
2023/12/14 04:13:26;;;;;;;14.05;12.65;;;;;;;7.78;100.00;101165.00;5239202;28;20236;-77
2023/12/14 04:15:58;;;;;;;13.23;11.93;;;;;;;7.79;100.00;101167.50;5237673;28;20029;-77
2023/12/14 04:18:30;;;;;;;13.55;12.25;;;;;;;7.78;100.00;101168.44;5238735;28;20032;-77
2023/12/14 04:21:02;;;;;;;13.75;12.13;;;;;;;7.77;100.00;101177.22;5238586;28;20026;-77
2023/12/14 04:23:34;;;;;;;13.55;12.15;;;;;;;7.73;100.00;101178.34;5237017;28;20033;-77
2023/12/14 04:26:07;;;;;;;14.10;12.55;;;;;;;7.69;100.00;101183.84;5238560;28;20043;-77
2023/12/14 04:28:39;;;;;;;13.02;11.73;;;;;;;7.73;100.00;101188.78;5242577;28;20034;-77
2023/12/14 04:31:11;;;;;;;12.88;11.45;;;;;;;7.69;100.00;101205.59;5240469;28;20032;-77
2023/12/14 04:33:43;;;;;;;13.32;11.93;;;;;;;7.72;100.00;101212.34;5234260;28;20053;-77
2023/12/14 04:36:14;;;;;;;14.13;12.73;;;;;;;7.71;100.00;101216.72;5231162;28;20029;-77
2023/12/14 04:38:46;;;;;;;13.88;12.48;;;;;;;7.71;100.00;101221.09;5233593;28;20037;-77
2023/12/14 04:41:18;;;;;;;13.68;12.27;;;;;;;7.71;100.00;101236.75;5233943;28;20036;-77
2023/12/14 04:43:50;;;;;;;14.43;12.30;;;;;;;7.72;100.00;101231.44;5234004;28;20119;-77
2023/12/14 04:46:22;;;;;;;13.75;11.88;;;;;;;7.67;100.00;101235.28;5237255;28;20525;-77
2023/12/14 04:48:55;;;;;;;12.90;11.60;;;;;;;7.70;100.00;101253.34;5238206;28;20410;-77
2023/12/14 04:51:26;;;;;;;15.38;13.07;;;;;;;7.66;100.00;101238.84;5237879;28;20041;-77
2023/12/14 04:53:58;;;;;;;14.50;13.00;;;;;;;7.62;100.00;101246.03;5237354;28;20394;-77
2023/12/14 04:56:30;;;;;;;13.70;12.30;;;;;;;7.65;100.00;101256.28;5238791;28;20033;-77
2023/12/14 04:59:02;;;;;;;14.43;12.93;;;;;;;7.64;100.00;101251.13;5237164;28;20025;-77
2023/12/14 05:01:34;;;;;;;14.60;13.10;;;;;;;7.65;100.00;101252.78;5235437;28;20037;-77
2023/12/14 05:04:06;;;;;;;17.20;13.32;;;;;;;7.63;100.00;101255.53;5233629;28;20376;-77
2023/12/14 05:06:38;;;;;;;14.20;12.77;;;;;;;7.69;100.00;101277.75;5236081;28;20032;-77
2023/12/14 05:09:11;;;;;;;16.83;13.27;;;;;;;7.67;100.00;101280.47;5236692;28;20044;-77
2023/12/14 05:11:43;;;;;;;15.45;13.77;;;;;;;7.73;100.00;101289.66;5237911;28;20032;-77
2023/12/14 05:14:15;;;;;;;14.20;12.70;;;;;;;7.70;100.00;101297.69;5236685;28;20030;-77
2023/12/14 05:16:47;;;;;;;15.05;12.98;;;;;;;7.70;100.00;101297.69;5237177;28;20033;-77
2023/12/14 05:19:19;;;;;;;15.15;13.52;;;;;;;7.67;100.00;101296.09;5235423;28;20478;-77
2023/12/14 05:21:50;;;;;;;13.63;12.18;;;;;;;7.73;100.00;101308.75;5237185;28;20052;-77
2023/12/14 05:24:22;;;;;;;14.95;13.43;;;;;;;7.77;100.00;101314.59;5236645;28;20047;-77
2023/12/14 05:26:54;;;;;;;14.68;13.18;;;;;;;7.73;100.00;101311.38;5237624;28;20033;-77
2023/12/14 05:29:26;;;;;;;16.08;13.77;;;;;;;7.77;100.00;101319.81;5236426;28;20503;-77
2023/12/14 05:31:58;;;;;;;14.45;13.05;;;;;;;7.77;100.00;101325.03;5237084;28;20383;-77
2023/12/14 05:34:30;;;;;;;14.95;13.30;;;;;;;7.81;100.00;101336.94;5243502;28;20041;-77
2023/12/14 05:37:02;;;;;;;13.73;12.25;;;;;;;7.78;100.00;101340.59;5241487;28;20071;-77
2023/12/14 05:39:34;;;;;;;14.27;12.82;;;;;;;7.80;100.00;101350.91;5241979;28;20033;-77
2023/12/14 05:42:06;;;;;;;14.43;12.77;;;;;;;7.75;100.00;101355.59;5234919;28;20040;-77
2023/12/14 05:44:38;;;;;;;14.20;12.38;;;;;;;7.79;100.00;101357.06;5243325;28;20068;-77
2023/12/14 05:47:10;;;;;;;15.00;13.48;;;;;;;7.76;100.00;101367.69;5240302;28;20027;-77
2023/12/14 05:49:42;;;;;;;14.45;12.98;;;;;;;7.72;100.00;101374.03;5241419;28;20037;-77
2023/12/14 05:52:14;;;;;;;14.55;13.02;;;;;;;7.80;100.00;101377.84;5236662;28;20033;-77
2023/12/14 05:54:46;;;;;;;13.75;12.35;;;;;;;7.75;100.00;101381.66;5236417;28;20059;-77
2023/12/14 05:57:18;;;;;;;13.55;12.23;;;;;;;7.78;100.00;101395.34;5241468;28;20355;-77
2023/12/14 05:59:51;;;;;;;14.25;12.75;;;;;;;7.74;100.00;101383.44;5236291;28;20033;-77
2023/12/14 06:02:22;;;;;;;16.70;13.07;;;;;;;7.80;100.00;101397.84;5241698;28;20406;-77
2023/12/14 06:04:56;;;;;;;13.15;11.85;;;;;;;7.77;100.00;101401.50;5239175;28;20296;-76
2023/12/14 06:07:28;;;;;;;14.05;12.55;;;;;;;7.80;100.00;101403.06;5239624;28;20029;-77
2023/12/14 06:10:01;;;;;;;13.88;12.55;;;;;;;7.81;100.00;101402.16;5241867;28;20033;-77
2023/12/14 06:12:32;;;;;;;14.93;12.47;;;;;;;7.83;100.00;101397.66;5243642;28;20032;-77
2023/12/14 06:15:05;;;;;;;13.52;12.23;;;;;;;7.78;100.00;101402.34;5240307;28;20291;-77
2023/12/14 06:17:39;;;;;;;14.40;12.70;;;;;;;7.84;100.00;101404.56;5239111;28;20135;-77
2023/12/14 06:20:11;;;;;;;13.25;12.00;;;;;;;7.80;100.00;101408.28;5237967;28;20032;-77
2023/12/14 06:22:42;;;;;;;13.73;12.20;;;;;;;7.77;100.00;101419.78;5242190;28;20060;-76
2023/12/14 06:25:14;;;;;;;14.10;12.70;;;;;;;7.79;100.00;101430.09;5238805;28;20034;-77
2023/12/14 06:27:46;;;;;;;13.50;12.13;;;;;;;7.78;100.00;101428.44;5233658;28;20040;-77
2023/12/14 06:30:18;;;;;;;13.50;12.20;;;;;;;7.80;100.00;101444.81;5238991;28;20037;-76
2023/12/14 06:32:50;;;;;;;13.82;12.43;;;;;;;7.78;100.00;101441.47;5243681;28;20060;-76
2023/12/14 06:35:22;;;;;;;12.48;11.18;;;;;;;7.72;100.00;101442.69;5245840;28;20028;-76
2023/12/14 06:37:54;;;;;;;13.70;12.40;;;;;;;7.81;100.00;101446.50;5232791;28;20037;-76
2023/12/14 06:40:26;;;;;;;14.00;12.45;;;;;;;7.82;100.00;101452.56;5241838;28;20039;-76
2023/12/14 06:42:58;;;;;;;13.52;12.15;;;;;;;7.73;100.00;101453.97;5240318;28;20047;-76
2023/12/14 06:45:29;;;;;;;14.52;13.00;;;;;;;7.76;100.00;101464.19;5243022;28;20467;-76
2023/12/14 06:48:03;;;;;;;16.13;13.18;;;;;;;7.71;100.00;101466.25;5240139;28;20390;-76
2023/12/14 06:50:34;;;;;;;;;;;;;;;8.30;100.00;101464.22;5241807;28;20391;-76
2023/12/14 06:53:06;;;;;;;19.67;14.35;;;;;;;7.62;100.00;101466.84;5239168;28;19923;-76
2023/12/14 06:55:38;;;;;;;17.90;15.15;;;;;;;7.55;100.00;101475.03;5236782;28;20037;-76
2023/12/14 06:58:11;;;;;;;19.33;15.32;;;;;;;7.55;100.00;101474.22;5238121;28;20397;-76
2023/12/14 07:00:43;;;;;;;17.77;14.30;;;;;;;7.55;100.00;101489.84;5241967;28;20029;-76
2023/12/14 07:03:16;;;;;;;19.17;14.68;;;;;;;7.47;100.00;101492.94;5237781;28;20025;-77
2023/12/14 07:05:47;;;;;;;17.47;14.37;;;;;;;7.50;100.00;101492.75;5239211;28;20033;-76
2023/12/14 07:08:19;;;;;;;20.60;15.27;;;;;;;7.53;100.00;101495.16;5244517;28;20306;-76
2023/12/14 07:10:51;;;;;;;19.63;14.68;;;;;;;7.46;100.00;101493.88;5248723;28;20150;-76
2023/12/14 07:13:23;;;;;;;18.70;14.38;;;;;;;7.43;100.00;101501.88;5243878;28;20025;-76
2023/12/14 07:15:55;;;;;;;20.38;16.20;;;;;;;7.42;100.00;101513.22;5243234;28;20037;-76
2023/12/14 07:18:27;;;;;;;21.73;15.90;;;;;;;7.45;100.00;101525.22;5240211;28;20047;-76
2023/12/14 07:20:59;;;;;;;20.65;15.55;;;;;;;7.44;100.00;101526.19;5243667;28;20039;-76
2023/12/14 07:23:31;;;;;;;22.38;15.40;;;;;;;7.43;100.00;101532.34;5240885;28;20098;-76
2023/12/14 07:26:03;;;;;;;19.38;15.25;;;;;;;7.48;100.00;101540.69;5240811;28;20036;-76
2023/12/14 07:28:35;;;;;;;18.00;14.45;;;;;;;7.45;100.00;101541.72;5248282;28;20041;-76
2023/12/14 07:31:07;;;;;;;22.05;14.75;;;;;;;7.42;100.00;101552.31;5244089;28;20047;-76
2023/12/14 07:33:39;;;;;;;19.63;14.15;;;;;;;7.38;100.00;101552.59;5251868;28;20055;-76
2023/12/14 07:36:11;;;;;;;18.35;13.57;;;;;;;7.37;100.00;101554.38;5250816;28;20062;-76
2023/12/14 07:38:43;;;;;;;21.50;14.60;;;;;;;7.38;100.00;101563.88;5251789;28;20037;-75
2023/12/14 07:41:15;;;;;;;18.77;13.90;;;;;;;7.37;100.00;101562.19;5253848;28;20029;-76
2023/12/14 07:43:47;;;;;;;17.57;12.83;;;;;;;7.37;100.00;101561.38;5249823;28;20037;-76
2023/12/14 07:46:19;;;;;;;17.92;12.60;;;;;;;7.34;100.00;101569.34;5253998;28;20035;-76
2023/12/14 07:48:51;;;;;;;15.90;12.82;;;;;;;7.30;100.00;101573.91;5253766;28;20043;-76
2023/12/14 07:51:22;;;;;;;17.27;12.00;;;;;;;7.27;100.00;101574.97;5248079;28;20041;-75
2023/12/14 07:53:55;;;;;;;17.20;12.82;;;;;;;7.28;100.00;101578.41;5248679;28;20043;-75
2023/12/14 07:56:27;;;;;;;22.70;13.50;;;;;;;7.28;100.00;101589.66;5251492;28;20033;-76
2023/12/14 07:58:59;;;;;;;15.02;11.25;;;;;;;7.33;100.00;101594.59;5252667;28;20409;-76
2023/12/14 08:01:31;;;;;;;15.48;11.68;;;;;;;7.26;100.00;101591.50;5251077;28;20017;-76
2023/12/14 08:04:03;;;;;;;17.60;11.95;;;;;;;7.25;100.00;101602.88;5252922;28;20021;-76
2023/12/14 08:06:35;;;;;;;18.85;12.13;;;;;;;7.29;100.00;101606.13;5252581;28;20048;-76
2023/12/14 08:09:07;;;;;;;15.35;10.43;;;;;;;7.30;100.00;101608.63;5248202;28;20029;-76
2023/12/14 08:11:39;;;;;;;13.75;10.85;;;;;;;7.30;100.00;101613.84;5252721;28;20029;-75
2023/12/14 08:14:11;;;;;;;12.80;10.20;;;;;;;7.29;100.00;101611.34;5252915;28;20035;-76
2023/12/14 08:16:43;;;;;;;13.45;10.05;;;;;;;7.24;100.00;101606.41;5252375;28;20489;-76
2023/12/14 08:19:15;;;;;;;12.82;9.95;;;;;;;7.28;100.00;101617.50;5253205;28;20033;-76
2023/12/14 08:21:46;;;;;;;12.77;10.75;;;;;;;7.27;100.00;101621.88;5252837;28;20036;-76
2023/12/14 08:24:18;;;;;;;12.60;9.23;;;;;;;7.28;100.00;101631.34;5257143;28;20029;-76
2023/12/14 08:26:51;;;;;;;11.90;9.88;;;;;;;7.29;100.00;101634.81;5256454;28;20035;-75
2023/12/14 08:29:23;;;;;;;12.95;10.20;;;;;;;7.33;100.00;101649.31;5257792;28;20032;-76
2023/12/14 08:31:57;;;;;;;13.05;10.27;;;;;;;7.25;100.00;101644.56;5254314;28;20033;-76
2023/12/14 08:34:28;;;;;;;11.77;9.90;;;;;;;7.25;100.00;101656.75;5244323;28;20030;-76
2023/12/14 08:37:02;;;;;;;12.23;9.82;;;;;;;7.26;100.00;101658.44;5241395;28;20394;-76
2023/12/14 08:39:33;;;;;;;10.93;9.77;;;;;;;7.19;100.00;101654.50;5244875;28;20398;-76
2023/12/14 08:42:05;;;;;;;12.60;10.65;;;;;;;7.20;100.00;101672.66;5242878;28;20025;-76
2023/12/14 08:44:40;;;;;;;10.88;9.82;;;;;;;7.25;100.00;101673.22;5242533;28;20498;-75
2023/12/14 08:47:12;;;;;;;10.90;9.77;;;;;;;7.21;100.00;101683.94;5246762;28;20037;-76
2023/12/14 08:49:44;;;;;;;13.30;9.90;;;;;;;7.20;100.00;101685.69;5249138;28;20044;-75
2023/12/14 08:52:17;;;;;;;11.68;10.32;;;;;;;7.23;100.00;101685.50;5245289;28;20029;-75
2023/12/14 08:54:48;;;;;;;11.77;10.57;;;;;;;7.29;100.00;101681.72;5242694;28;20030;-76
2023/12/14 08:57:21;;;;;;;11.52;9.55;;;;;;;7.24;100.00;101676.78;5236514;28;20043;-76
2023/12/14 08:59:53;;;;;;;10.70;8.90;;;;;;;7.28;100.00;101690.47;5237363;28;20029;-76
2023/12/14 09:02:25;;;;;;;11.27;9.70;;;;;;;7.20;100.00;101671.84;5240554;28;20385;-76
2023/12/14 09:04:57;;;;;;;11.35;9.43;;;;;;;7.33;100.00;101688.44;5246653;28;20025;-76
2023/12/14 09:07:28;;;;;;;11.07;9.75;;;;;;;7.33;100.00;101696.25;5240730;28;20031;-76
2023/12/14 09:10:00;;;;;;;11.57;9.35;;;;;;;7.30;100.00;101709.44;5243041;28;20032;-75
2023/12/14 09:12:34;;;;;;;10.18;9.15;;;;;;;7.24;100.00;101721.09;5241512;28;20033;-75
2023/12/14 09:15:06;;;;;;;10.25;9.18;;;;;;;7.26;100.00;101718.38;5246325;28;20044;-76
2023/12/14 09:17:38;;;;;;;11.05;9.80;;;;;;;7.22;100.00;101728.13;5248068;28;20037;-75
2023/12/14 09:20:11;;;;;;;9.77;8.77;;;;;;;7.17;100.00;101724.97;5242036;28;20032;-75
2023/12/14 09:22:43;;;;;;;9.70;8.70;;;;;;;7.20;100.00;101737.81;5243171;28;20029;-75
2023/12/14 09:25:15;;;;;;;10.45;9.38;;;;;;;6.98;100.00;101742.53;5243562;28;20033;-75
2023/12/14 09:27:47;;;;;;;9.93;8.73;;;;;;;6.87;100.00;101743.13;5242178;28;20035;-75
2023/12/14 09:30:19;;;;;;;11.75;8.70;;;;;;;6.80;100.00;101754.81;5245326;28;20025;-75
2023/12/14 09:32:51;;;;;;;8.88;7.97;;;;;;;6.80;100.00;101754.81;5243312;28;20430;-76
2023/12/14 09:35:23;;;;;;;10.80;8.88;;;;;;;6.81;100.00;101765.13;5244966;28;20025;-75
2023/12/14 09:37:56;;;;;;;9.52;8.52;;;;;;;6.76;100.00;101764.53;5242292;28;20091;-76
2023/12/14 09:40:28;;;;;;;9.63;8.63;;;;;;;6.84;100.00;101777.16;5241875;28;20032;-75
2023/12/14 09:43:00;;;;;;;9.13;8.23;;;;;;;6.78;100.00;101770.53;5246725;28;20108;-76
2023/12/14 09:45:33;;;;;;;11.85;8.45;;;;;;;6.83;100.00;101776.31;5246369;28;20025;-76
2023/12/14 09:48:05;;;;;;;9.75;8.75;;;;;;;6.85;100.00;101778.81;5247890;28;20029;-75
2023/12/14 09:50:38;;;;;;;8.55;7.75;;;;;;;6.82;100.00;101787.66;5245915;28;20394;-75
2023/12/14 09:53:11;;;;;;;9.15;8.18;;;;;;;6.81;100.00;101791.16;5240838;28;20033;-76
2023/12/14 09:55:42;;;;;;;9.95;8.85;;;;;;;6.75;100.00;101791.53;5237232;28;20415;-75
2023/12/14 09:58:14;;;;;;;12.75;9.00;;;;;;;6.76;100.00;101795.81;5242360;28;20033;-75
2023/12/14 10:00:46;;;;;;;10.10;9.10;;;;;;;6.73;100.00;101806.38;5239080;28;20040;-75
2023/12/14 10:03:27;;;;;;;10.48;9.10;;;;;;;6.80;100.00;101818.16;5246047;28;20477;-75
2023/12/14 10:06:01;;;;;;;10.88;9.43;;;;;;;6.69;100.00;101817.88;5243370;28;20033;-76
2023/12/14 10:08:33;;;;;;;11.23;9.10;;;;;;;6.68;100.00;101825.78;5239615;28;20047;-75
2023/12/14 10:11:16;;;;;;;11.27;9.55;;;;;;;6.85;100.00;101825.72;5242114;28;20033;-75
2023/12/14 10:13:48;;;;;;;11.60;9.20;;;;;;;6.75;100.00;101821.94;5242920;28;20052;-76
2023/12/14 10:16:31;;;;;;;10.52;9.25;;;;;;;6.88;100.00;101830.75;5244471;28;20463;-75
2023/12/14 10:19:03;;;;;;;10.10;8.77;;;;;;;6.77;100.00;101825.28;5240995;28;20045;-75
2023/12/14 10:21:36;;;;;;;10.45;8.82;;;;;;;6.73;100.00;101828.97;5241933;28;20426;-75
2023/12/14 10:24:08;;;;;;;9.43;8.43;;;;;;;6.78;100.00;101838.25;5242397;28;20032;-75
2023/12/14 10:26:40;;;;;;;9.70;8.70;;;;;;;6.74;100.00;101847.16;5238920;28;20036;-75
2023/12/14 10:29:12;;;;;;;10.48;8.63;;;;;;;6.76;100.00;101844.44;5241592;28;20021;-75
2023/12/14 10:31:44;;;;;;;10.93;8.70;;;;;;;6.74;100.00;101848.88;5239561;28;20496;-76
2023/12/14 10:34:16;;;;;;;10.32;8.05;;;;;;;6.68;100.00;101849.22;5247192;28;20394;-75
2023/12/14 10:36:48;;;;;;;10.32;8.80;;;;;;;6.68;100.00;101846.63;5245040;28;20119;-75
2023/12/14 10:39:20;;;;;;;11.75;9.57;;;;;;;6.67;100.00;101847.53;5239386;28;20036;-75
2023/12/14 10:41:54;;;;;;;9.57;8.63;;;;;;;6.72;100.00;101863.75;5239823;28;20033;-75
2023/12/14 10:44:27;;;;;;;9.27;7.93;;;;;;;6.70;100.00;101856.00;5242047;28;20044;-75
2023/12/14 10:46:59;;;;;;;;;;;;;;;7.23;100.00;101854.91;5244087;28;20025;-75
2023/12/14 10:49:31;;;;;;;10.30;8.77;;;;;;;6.68;100.00;101850.06;5244398;28;20365;-75
2023/12/14 10:52:04;;;;;;;10.05;8.27;;;;;;;6.71;100.00;101865.53;5240813;28;20032;-77
2023/12/14 10:54:38;;;;;;;12.68;8.43;;;;;;;6.71;100.00;101860.31;5240054;28;20590;-77
2023/12/14 10:57:10;;;;;;;10.18;8.85;;;;;;;6.77;100.00;101877.38;5240354;28;20022;-77
2023/12/14 10:59:42;;;;;;;9.00;7.75;;;;;;;6.78;100.00;101877.31;5242988;28;20036;-76
2023/12/14 11:02:15;;;;;;;9.90;7.70;;;;;;;6.76;100.00;101873.09;5242467;28;20037;-76
2023/12/14 11:04:59;;;;;;;9.15;8.05;;;;;;;6.92;100.00;101867.91;5243756;28;20029;-76
2023/12/14 11:07:54;;;;;;;9.10;8.18;;;;;;;6.95;100.00;101873.81;5240160;28;20041;-76
2023/12/14 11:10:28;;;;;;;9.18;8.00;;;;;;;6.76;100.00;101866.13;5244983;28;20037;-76
2023/12/14 11:13:02;;;;;;;9.63;7.68;;;;;;;6.77;100.00;101867.78;5245718;28;20472;-76
2023/12/14 11:15:34;;;;;;;8.68;7.68;;;;;;;6.73;100.00;101875.84;5245787;28;20041;-76
2023/12/14 11:18:12;;;;;;;8.63;7.72;;;;;;;6.81;100.00;101881.50;5240775;28;20044;-76
2023/12/14 11:20:44;;;;;;;9.13;7.97;;;;;;;6.70;100.00;101887.25;5235636;28;20033;-76
2023/12/14 11:23:26;;;;;;;10.30;8.27;;;;;;;6.72;100.00;101895.00;5245277;28;20494;-76
2023/12/14 11:26:05;;;;;;;9.13;8.05;;;;;;;6.84;100.00;101902.19;5238592;28;20040;-76
2023/12/14 11:28:41;;;;;;;9.93;7.53;;;;;;;6.77;100.00;101908.63;5239727;28;20044;-76
2023/12/14 11:31:14;;;;;;;9.48;7.80;;;;;;;6.82;100.00;101914.47;5235945;28;20041;-76
2023/12/14 11:33:47;;;;;;;8.93;8.02;;;;;;;6.86;100.00;101912.50;5252988;28;20179;-76
2023/12/14 11:36:20;;;;;;;8.65;7.75;;;;;;;6.84;100.00;101923.03;5252971;28;20040;-76